Time;durP1;ratioP1;P1;durP2;ratioP2;P2;SDS_P1;SDS_P2;PMS_P1;PMS_P2;Temp;Humidity;BMP_temperature;BMP_pressure;BME280_temperature;BME280_humidity;BME280_pressure;Samples;Min_cycle;Max_cycle;Signal;HPM_P1;HPM_P2
2023/09/25 00:02:00;;;;;;;1.15;0.47;;;;;;;;;;4975627;28;20498;-60
2023/09/25 00:04:28;;;;;;;0.95;0.52;;;;;;;;;;4975502;28;20058;-60
2023/09/25 00:06:55;;;;;;;12.25;0.70;;;;;;;;;;4970210;28;20663;-60
2023/09/25 00:09:23;;;;;;;0.55;0.30;;;;;;;;;;4979197;28;20363;-59
2023/09/25 00:11:49;;;;;;;3.10;0.45;;;;;;;;;;4987304;28;20049;-60
2023/09/25 00:14:16;;;;;;;2.75;0.73;;;;;;;;;;4978516;28;20363;-59
2023/09/25 00:16:42;;;;;;;0.65;0.43;;;;;;;;;;4967090;28;20422;-59
2023/09/25 00:19:09;;;;;;;0.45;0.32;;;;;;;;;;4994580;28;20113;-59
2023/09/25 00:21:36;;;;;;;0.45;0.43;;;;;;;;;;4994439;28;20023;-60
2023/09/25 00:24:03;;;;;;;0.75;0.32;;;;;;;;;;4980982;28;20382;-59
2023/09/25 00:26:30;;;;;;;0.57;0.30;;;;;;;;;;4975297;28;20398;-60
2023/09/25 00:28:56;;;;;;;0.17;0.13;;;;;;;;;;4971077;28;20026;-60
2023/09/25 00:31:23;;;;;;;0.43;0.25;;;;;;;;;;4970637;28;20054;-59
2023/09/25 00:33:50;;;;;;;0.20;0.20;;;;;;;;;;4969636;28;20548;-60
2023/09/25 00:36:18;;;;;;;0.50;0.40;;;;;;;;;;4969274;28;20085;-59
2023/09/25 00:38:44;;;;;;;1.05;0.40;;;;;;;;;;4971477;28;20027;-59
2023/09/25 00:41:11;;;;;;;25.48;1.17;;;;;;;;;;4981649;28;20080;-59
2023/09/25 00:43:38;;;;;;;0.45;0.35;;;;;;;;;;4993571;28;20037;-59
2023/09/25 00:46:04;;;;;;;3.58;1.15;;;;;;;;;;4992531;28;20041;-59
2023/09/25 00:48:32;;;;;;;1.90;0.70;;;;;;;;;;4994122;28;20097;-59
2023/09/25 00:50:59;;;;;;;2.05;0.73;;;;;;;;;;4991154;28;20607;-60
2023/09/25 00:53:27;;;;;;;2.63;0.77;;;;;;;;;;4981728;28;20034;-59
2023/09/25 00:55:54;;;;;;;0.43;0.35;;;;;;;;;;4969050;28;20089;-59
2023/09/25 00:58:21;;;;;;;1.25;0.68;;;;;;;;;;4969293;28;20034;-59
2023/09/25 01:00:47;;;;;;;4.72;0.50;;;;;;;;;;4969989;28;20041;-59
2023/09/25 01:03:14;;;;;;;2.83;0.50;;;;;;;;;;4976610;28;20023;-59
2023/09/25 01:05:41;;;;;;;0.52;0.50;;;;;;;;;;4974184;28;20081;-59
2023/09/25 01:08:10;;;;;;;1.98;0.40;;;;;;;;;;4978713;28;20054;-60
2023/09/25 01:10:39;;;;;;;0.30;0.20;;;;;;;;;;4986756;28;20788;-60
2023/09/25 01:13:05;;;;;;;0.52;0.30;;;;;;;;;;4982246;28;20389;-61
2023/09/25 01:15:32;;;;;;;2.72;1.05;;;;;;;;;;4988134;28;20497;-60
2023/09/25 01:17:59;;;;;;;6.07;0.93;;;;;;;;;;4969547;28;20057;-60
2023/09/25 01:20:29;;;;;;;3.00;0.90;;;;;;;;;;4988074;28;20019;-60
2023/09/25 01:22:55;;;;;;;4.03;1.05;;;;;;;;;;4988202;28;20023;-61
2023/09/25 01:25:25;;;;;;;0.95;0.57;;;;;;;;;;4992578;28;20030;-59
2023/09/25 01:27:52;;;;;;;0.17;0.17;;;;;;;;;;4992049;28;20453;-60
2023/09/25 01:30:19;;;;;;;0.52;0.40;;;;;;;;;;4980523;28;20054;-60
2023/09/25 01:32:46;;;;;;;2.05;0.98;;;;;;;;;;4973257;28;20027;-61
2023/09/25 01:35:17;;;;;;;0.32;0.30;;;;;;;;;;4973110;28;20023;-60
2023/09/25 01:37:44;;;;;;;0.50;0.38;;;;;;;;;;4968397;28;20026;-60
2023/09/25 01:40:12;;;;;;;3.80;0.60;;;;;;;;;;4979958;28;20478;-61
2023/09/25 01:42:43;;;;;;;0.57;0.50;;;;;;;;;;4987379;28;20034;-61
2023/09/25 01:45:10;;;;;;;0.20;0.17;;;;;;;;;;4987366;28;20117;-61
2023/09/25 01:47:37;;;;;;;1.90;0.60;;;;;;;;;;4991921;28;20477;-60
2023/09/25 01:50:04;;;;;;;0.50;0.50;;;;;;;;;;4981557;28;20038;-60
2023/09/25 01:52:31;;;;;;;0.80;0.37;;;;;;;;;;4972995;28;20110;-60
2023/09/25 01:54:58;;;;;;;2.85;1.02;;;;;;;;;;4972469;28;20423;-60
2023/09/25 01:57:24;;;;;;;1.25;0.70;;;;;;;;;;4972134;28;20023;-60
2023/09/25 01:59:51;;;;;;;0.35;0.35;;;;;;;;;;4968642;28;20068;-60
2023/09/25 02:02:19;;;;;;;11.37;1.10;;;;;;;;;;4979389;28;20038;-60
2023/09/25 02:04:45;;;;;;;0.70;0.40;;;;;;;;;;4986812;28;20461;-60
2023/09/25 02:07:14;;;;;;;5.70;1.07;;;;;;;;;;4984505;28;20382;-60
2023/09/25 02:09:41;;;;;;;1.53;0.83;;;;;;;;;;4989514;28;20039;-60
2023/09/25 02:12:08;;;;;;;1.33;0.53;;;;;;;;;;4992391;28;20095;-62
2023/09/25 02:14:34;;;;;;;0.53;0.40;;;;;;;;;;4992363;28;20097;-61
2023/09/25 02:17:01;;;;;;;0.53;0.33;;;;;;;;;;4991698;28;20382;-61
2023/09/25 02:19:28;;;;;;;0.93;0.50;;;;;;;;;;4992150;28;20037;-61
2023/09/25 02:21:55;;;;;;;0.37;0.33;;;;;;;;;;4989784;28;20545;-61
2023/09/25 02:24:21;;;;;;;1.10;0.30;;;;;;;;;;4987729;28;20046;-60
2023/09/25 02:26:48;;;;;;;0.93;0.43;;;;;;;;;;4987298;28;20052;-61
2023/09/25 02:29:15;;;;;;;1.03;0.50;;;;;;;;;;4969294;28;20099;-61
2023/09/25 02:31:41;;;;;;;0.20;0.13;;;;;;;;;;4970102;28;20027;-61
2023/09/25 02:34:14;;;;;;;0.67;0.40;;;;;;;;;;4974068;28;20023;-60
2023/09/25 02:36:41;;;;;;;6.10;0.50;;;;;;;;;;4982757;28;20037;-60
2023/09/25 02:39:09;;;;;;;0.40;0.30;;;;;;;;;;4983372;28;20505;-61
2023/09/25 02:41:36;;;;;;;0.67;0.43;;;;;;;;;;4989346;28;20038;-60
2023/09/25 02:44:03;;;;;;;0.77;0.37;;;;;;;;;;4978154;28;20042;-60
2023/09/25 02:46:29;;;;;;;31.70;1.30;;;;;;;;;;4982093;28;20034;-60
2023/09/25 02:48:56;;;;;;;1.00;0.47;;;;;;;;;;4987338;28;20625;-60
2023/09/25 02:51:23;;;;;;;0.63;0.43;;;;;;;;;;4973344;28;20033;-61
2023/09/25 02:53:49;;;;;;;0.43;0.37;;;;;;;;;;4969721;28;20031;-60
2023/09/25 02:56:16;;;;;;;0.20;0.20;;;;;;;;;;4993568;28;20026;-60
2023/09/25 02:58:43;;;;;;;0.80;0.33;;;;;;;;;;4992406;28;20089;-62
2023/09/25 03:01:09;;;;;;;0.97;0.70;;;;;;;;;;4984737;28;20070;-60
2023/09/25 03:03:36;;;;;;;0.20;0.20;;;;;;;;;;4972892;28;20423;-61
2023/09/25 03:06:03;;;;;;;1.40;0.73;;;;;;;;;;4972114;28;20114;-60
2023/09/25 03:08:30;;;;;;;0.80;0.47;;;;;;;;;;4952384;28;20038;-61
2023/09/25 03:10:57;;;;;;;0.80;0.50;;;;;;;;;;4991071;28;20037;-60
2023/09/25 03:13:23;;;;;;;0.57;0.53;;;;;;;;;;4990970;28;20023;-63
2023/09/25 03:15:50;;;;;;;1.37;0.67;;;;;;;;;;4990902;28;20034;-61
2023/09/25 03:18:17;;;;;;;0.40;0.30;;;;;;;;;;4995020;28;20033;-61
2023/09/25 03:20:43;;;;;;;0.33;0.30;;;;;;;;;;4995947;28;20138;-61
2023/09/25 03:23:10;;;;;;;0.57;0.23;;;;;;;;;;4995783;28;20101;-61
2023/09/25 03:25:37;;;;;;;0.40;0.27;;;;;;;;;;4995805;28;20061;-61
2023/09/25 03:28:03;;;;;;;0.97;0.47;;;;;;;;;;4995333;28;20097;-62
2023/09/25 03:30:30;;;;;;;0.87;0.57;;;;;;;;;;4991249;28;20470;-62
2023/09/25 03:32:57;;;;;;;5.57;0.90;;;;;;;;;;4990756;28;20137;-61
2023/09/25 03:35:24;;;;;;;1.13;0.63;;;;;;;;;;4990394;28;20026;-61
2023/09/25 03:37:51;;;;;;;0.47;0.40;;;;;;;;;;4990633;28;20034;-61
2023/09/25 03:40:17;;;;;;;8.30;0.27;;;;;;;;;;4993786;28;20370;-61
2023/09/25 03:42:44;;;;;;;1.30;0.43;;;;;;;;;;4995237;28;20026;-61
2023/09/25 03:45:11;;;;;;;3.67;0.87;;;;;;;;;;4995526;28;20034;-62
2023/09/25 03:47:47;;;;;;;0.77;0.53;;;;;;;;;;4986524;28;20058;-61
2023/09/25 03:50:14;;;;;;;0.30;0.20;;;;;;;;;;4975599;28;20026;-61
2023/09/25 03:52:42;;;;;;;1.03;0.60;;;;;;;;;;4972577;28;20035;-60
2023/09/25 03:55:09;;;;;;;0.40;0.30;;;;;;;;;;4972167;28;20042;-61
2023/09/25 03:57:36;;;;;;;0.30;0.30;;;;;;;;;;4986341;28;20084;-61
2023/09/25 04:00:06;;;;;;;1.17;0.43;;;;;;;;;;4973806;28;20037;-61
2023/09/25 04:02:33;;;;;;;0.40;0.27;;;;;;;;;;4979748;28;20165;-60
2023/09/25 04:04:59;;;;;;;0.03;0.03;;;;;;;;;;4994739;28;20026;-60
2023/09/25 04:07:26;;;;;;;0.63;0.33;;;;;;;;;;4995097;28;20108;-61
2023/09/25 04:09:53;;;;;;;0.10;0.10;;;;;;;;;;4994508;28;20485;-61
2023/09/25 04:12:19;;;;;;;0.90;0.40;;;;;;;;;;4991999;28;20038;-61
2023/09/25 04:14:46;;;;;;;1.80;0.60;;;;;;;;;;4973057;28;20109;-61
2023/09/25 04:17:13;;;;;;;0.57;0.30;;;;;;;;;;4982221;28;20363;-61
2023/09/25 04:19:40;;;;;;;0.50;0.50;;;;;;;;;;4988875;28;20031;-61
2023/09/25 04:22:07;;;;;;;0.77;0.47;;;;;;;;;;4989966;28;20065;-61
2023/09/25 04:24:37;;;;;;;0.40;0.30;;;;;;;;;;4990761;28;20116;-61
2023/09/25 04:27:04;;;;;;;1.57;0.60;;;;;;;;;;4994061;28;20023;-61
2023/09/25 04:29:30;;;;;;;0.87;0.67;;;;;;;;;;4994159;28;20030;-61
2023/09/25 04:31:57;;;;;;;0.63;0.50;;;;;;;;;;4994532;28;20374;-61
2023/09/25 04:34:24;;;;;;;0.30;0.20;;;;;;;;;;4994478;28;20390;-60
2023/09/25 04:36:52;;;;;;;0.63;0.40;;;;;;;;;;4984902;28;20034;-60
2023/09/25 04:39:20;;;;;;;0.53;0.37;;;;;;;;;;4989511;28;20114;-60
2023/09/25 04:41:47;;;;;;;1.40;0.80;;;;;;;;;;4987341;28;20034;-60
2023/09/25 04:44:14;;;;;;;1.43;0.77;;;;;;;;;;4974573;28;20563;-60
2023/09/25 04:46:41;;;;;;;0.33;0.20;;;;;;;;;;4969484;28;20023;-60
2023/09/25 04:49:08;;;;;;;1.63;0.53;;;;;;;;;;4974953;28;20053;-61
2023/09/25 04:51:35;;;;;;;1.53;0.83;;;;;;;;;;4978630;28;20093;-62
2023/09/25 04:54:03;;;;;;;0.60;0.50;;;;;;;;;;4974840;28;20106;-62
2023/09/25 04:56:29;;;;;;;2.03;0.50;;;;;;;;;;4974607;28;20030;-60
2023/09/25 04:58:57;;;;;;;1.23;0.43;;;;;;;;;;4974576;28;20035;-60
2023/09/25 05:01:24;;;;;;;1.03;0.43;;;;;;;;;;4976821;28;20050;-59
2023/09/25 05:03:50;;;;;;;0.20;0.20;;;;;;;;;;4969498;28;20039;-60
2023/09/25 05:06:17;;;;;;;0.40;0.30;;;;;;;;;;4969345;28;20093;-59
2023/09/25 05:08:44;;;;;;;0.63;0.50;;;;;;;;;;4971764;28;20033;-60
2023/09/25 05:11:11;;;;;;;3.27;0.60;;;;;;;;;;4992889;28;20030;-60
2023/09/25 05:13:38;;;;;;;4.10;1.20;;;;;;;;;;4993385;28;20350;-62
2023/09/25 05:16:04;;;;;;;0.80;0.57;;;;;;;;;;4993587;28;20421;-60
2023/09/25 05:18:31;;;;;;;0.50;0.43;;;;;;;;;;4993633;28;20109;-61
2023/09/25 05:20:58;;;;;;;0.70;0.60;;;;;;;;;;4993565;28;20092;-60
2023/09/25 05:23:25;;;;;;;1.40;0.73;;;;;;;;;;4989753;28;20027;-60
2023/09/25 05:25:52;;;;;;;0.97;0.70;;;;;;;;;;4988003;28;20034;-60
2023/09/25 05:28:18;;;;;;;0.50;0.50;;;;;;;;;;4985608;28;20389;-60
2023/09/25 05:30:45;;;;;;;2.20;0.50;;;;;;;;;;4968502;28;20533;-61
2023/09/25 05:33:13;;;;;;;1.50;0.67;;;;;;;;;;4970828;28;20046;-60
2023/09/25 05:35:40;;;;;;;5.73;0.87;;;;;;;;;;4973947;28;20041;-61
2023/09/25 05:38:06;;;;;;;0.70;0.50;;;;;;;;;;4973816;28;20029;-60
2023/09/25 05:40:33;;;;;;;2.83;0.67;;;;;;;;;;4973813;28;20030;-60
2023/09/25 05:42:59;;;;;;;0.57;0.50;;;;;;;;;;4973686;28;20077;-60
2023/09/25 05:45:26;;;;;;;1.43;0.97;;;;;;;;;;4971163;28;20139;-59
2023/09/25 05:47:53;;;;;;;2.13;1.10;;;;;;;;;;4968273;28;20034;-59
2023/09/25 05:50:19;;;;;;;0.90;0.53;;;;;;;;;;4968480;28;20031;-59
2023/09/25 05:52:46;;;;;;;1.00;0.83;;;;;;;;;;4968350;28;20387;-59
2023/09/25 05:55:13;;;;;;;0.87;0.77;;;;;;;;;;4969394;28;20103;-59
2023/09/25 05:57:41;;;;;;;0.40;0.40;;;;;;;;;;4973717;28;20042;-59
2023/09/25 06:00:11;;;;;;;1.17;0.80;;;;;;;;;;4973504;28;20027;-59
2023/09/25 06:02:38;;;;;;;0.87;0.70;;;;;;;;;;4973424;28;20051;-59
2023/09/25 06:05:05;;;;;;;1.37;0.90;;;;;;;;;;4973354;28;20125;-59
2023/09/25 06:07:32;;;;;;;0.40;0.40;;;;;;;;;;4971694;28;20085;-59
2023/09/25 06:09:58;;;;;;;2.87;0.90;;;;;;;;;;4978962;28;20528;-59
2023/09/25 06:12:25;;;;;;;0.70;0.50;;;;;;;;;;4987617;28;20110;-59
2023/09/25 06:14:51;;;;;;;0.40;0.40;;;;;;;;;;4987486;28;20030;-59
2023/09/25 06:17:18;;;;;;;0.30;0.30;;;;;;;;;;4987938;28;20482;-59
2023/09/25 06:19:45;;;;;;;0.67;0.60;;;;;;;;;;4992643;28;20030;-59
2023/09/25 06:22:12;;;;;;;1.63;0.93;;;;;;;;;;4992709;28;20026;-59
2023/09/25 06:24:39;;;;;;;0.93;0.63;;;;;;;;;;4988676;28;20038;-59
2023/09/25 06:27:06;;;;;;;0.77;0.43;;;;;;;;;;4973155;28;20027;-60
2023/09/25 06:29:32;;;;;;;1.37;1.00;;;;;;;;;;4972716;28;20037;-59
2023/09/25 06:31:59;;;;;;;2.70;0.80;;;;;;;;;;4967895;28;20517;-59
2023/09/25 06:34:25;;;;;;;0.60;0.60;;;;;;;;;;4968008;28;20038;-59
2023/09/25 06:36:52;;;;;;;1.50;0.87;;;;;;;;;;4967706;28;20029;-59
2023/09/25 06:39:19;;;;;;;0.73;0.57;;;;;;;;;;4967755;28;20117;-59
2023/09/25 06:41:46;;;;;;;1.33;0.87;;;;;;;;;;4972386;28;20090;-59
2023/09/25 06:44:13;;;;;;;0.93;0.70;;;;;;;;;;4975441;28;20100;-59
2023/09/25 06:46:40;;;;;;;1.43;1.07;;;;;;;;;;4976337;28;20027;-59
2023/09/25 06:49:07;;;;;;;0.47;0.47;;;;;;;;;;4977037;28;20474;-59
2023/09/25 06:51:33;;;;;;;0.73;0.50;;;;;;;;;;4976711;28;20023;-59
2023/09/25 06:54:00;;;;;;;1.27;0.90;;;;;;;;;;4972368;28;20088;-59
2023/09/25 06:56:27;;;;;;;1.30;0.73;;;;;;;;;;4971692;28;20184;-60
2023/09/25 06:58:53;;;;;;;2.23;0.87;;;;;;;;;;4971587;28;20030;-59
2023/09/25 07:01:21;;;;;;;0.50;0.50;;;;;;;;;;4971494;28;20385;-59
2023/09/25 07:03:48;;;;;;;1.53;0.80;;;;;;;;;;4974136;28;20405;-59
2023/09/25 07:06:14;;;;;;;1.43;0.70;;;;;;;;;;4988114;28;20169;-59
2023/09/25 07:08:41;;;;;;;2.10;0.80;;;;;;;;;;4976556;28;20097;-60
2023/09/25 07:11:08;;;;;;;0.80;0.60;;;;;;;;;;4976582;28;20485;-59
2023/09/25 07:13:35;;;;;;;2.83;1.07;;;;;;;;;;4976436;28;20031;-59
2023/09/25 07:16:10;;;;;;;1.57;0.77;;;;;;;;;;4975055;28;20034;-59
2023/09/25 07:18:37;;;;;;;1.00;0.67;;;;;;;;;;4990368;28;20049;-59
2023/09/25 07:21:05;;;;;;;0.80;0.50;;;;;;;;;;4990468;28;20366;-59
2023/09/25 07:23:32;;;;;;;2.23;0.67;;;;;;;;;;4990361;28;20108;-59
2023/09/25 07:26:03;;;;;;;0.53;0.40;;;;;;;;;;4992789;28;20062;-59
2023/09/25 07:28:30;;;;;;;15.47;1.13;;;;;;;;;;4995648;28;20022;-59
2023/09/25 07:30:59;;;;;;;1.00;0.67;;;;;;;;;;4993931;28;20120;-60
2023/09/25 07:33:27;;;;;;;1.47;0.87;;;;;;;;;;4984138;28;20058;-59
2023/09/25 07:35:54;;;;;;;0.23;0.20;;;;;;;;;;4976161;28;20390;-59
2023/09/25 07:38:21;;;;;;;0.10;0.10;;;;;;;;;;4973653;28;20057;-60
2023/09/25 07:40:48;;;;;;;4.83;0.60;;;;;;;;;;4970435;28;20027;-59
2023/09/25 07:43:23;;;;;;;0.63;0.50;;;;;;;;;;4970627;28;20042;-59
2023/09/25 07:45:52;;;;;;;1.20;0.70;;;;;;;;;;4970725;28;20026;-59
2023/09/25 07:48:19;;;;;;;0.80;0.50;;;;;;;;;;4972282;28;20436;-59
2023/09/25 07:50:45;;;;;;;0.70;0.50;;;;;;;;;;4975694;28;20051;-59
2023/09/25 07:53:13;;;;;;;1.03;0.63;;;;;;;;;;4975923;28;20061;-59
2023/09/25 07:55:41;;;;;;;1.27;0.70;;;;;;;;;;4975449;28;20034;-59
2023/09/25 07:58:08;;;;;;;0.93;0.80;;;;;;;;;;4975712;28;20034;-59
2023/09/25 08:00:37;;;;;;;1.93;1.03;;;;;;;;;;4974594;28;20038;-60
2023/09/25 08:03:06;;;;;;;0.80;0.63;;;;;;;;;;4970142;28;20045;-59
2023/09/25 08:05:33;;;;;;;0.80;0.60;;;;;;;;;;4970256;28;20038;-59
2023/09/25 08:07:59;;;;;;;1.27;0.83;;;;;;;;;;4970314;28;20414;-59
2023/09/25 08:10:26;;;;;;;0.83;0.53;;;;;;;;;;4970450;28;20027;-59
2023/09/25 08:12:53;;;;;;;3.43;0.67;;;;;;;;;;4975263;28;20035;-59
2023/09/25 08:15:20;;;;;;;1.87;1.00;;;;;;;;;;4975098;28;20031;-59
2023/09/25 08:17:48;;;;;;;0.67;0.60;;;;;;;;;;4975301;28;20494;-59
2023/09/25 08:20:20;;;;;;;0.67;0.53;;;;;;;;;;4975266;28;20443;-59
2023/09/25 08:22:47;;;;;;;1.73;0.93;;;;;;;;;;4991669;28;20073;-59
2023/09/25 08:25:15;;;;;;;0.90;0.50;;;;;;;;;;4989362;28;20038;-59
2023/09/25 08:27:41;;;;;;;2.63;0.83;;;;;;;;;;4989405;28;20088;-59
2023/09/25 08:30:09;;;;;;;0.77;0.50;;;;;;;;;;4988977;28;20054;-60
2023/09/25 08:32:35;;;;;;;1.90;0.73;;;;;;;;;;4988913;28;20097;-59
2023/09/25 08:35:03;;;;;;;1.43;0.93;;;;;;;;;;4993355;28;20022;-59
2023/09/25 08:37:29;;;;;;;1.13;0.63;;;;;;;;;;4994437;28;20030;-59
2023/09/25 08:39:56;;;;;;;0.37;0.37;;;;;;;;;;4994370;28;20031;-59
2023/09/25 08:42:25;;;;;;;0.93;0.70;;;;;;;;;;4993480;28;20604;-59
2023/09/25 08:44:53;;;;;;;0.67;0.53;;;;;;;;;;4974799;28;20176;-59
2023/09/25 08:47:20;;;;;;;0.70;0.60;;;;;;;;;;4970674;28;20031;-60
2023/09/25 08:49:50;;;;;;;1.87;1.27;;;;;;;;;;4969507;28;20031;-59
2023/09/25 08:52:17;;;;;;;0.80;0.50;;;;;;;;;;4969424;28;20106;-59
2023/09/25 08:54:44;;;;;;;0.93;0.67;;;;;;;;;;4969441;28;20033;-58
2023/09/25 08:57:12;;;;;;;0.70;0.60;;;;;;;;;;4972385;28;20022;-59
2023/09/25 08:59:39;;;;;;;3.07;0.70;;;;;;;;;;4974572;28;20027;-59
2023/09/25 09:02:09;;;;;;;1.03;0.70;;;;;;;;;;4974406;28;20027;-59
2023/09/25 09:04:36;;;;;;;1.17;0.80;;;;;;;;;;4974573;28;20062;-59
2023/09/25 09:07:04;;;;;;;1.80;0.80;;;;;;;;;;4973914;28;20030;-60
2023/09/25 09:09:31;;;;;;;1.03;0.63;;;;;;;;;;4974129;28;20030;-59
2023/09/25 09:11:58;;;;;;;1.23;0.93;;;;;;;;;;4976389;28;20026;-59
2023/09/25 09:14:39;;;;;;;0.87;0.53;;;;;;;;;;4988180;28;20034;-59
2023/09/25 09:17:06;;;;;;;0.90;0.80;;;;;;;;;;4988535;28;20030;-59
2023/09/25 09:19:37;;;;;;;18.50;1.00;;;;;;;;;;4988461;28;20026;-59
2023/09/25 09:22:05;;;;;;;0.87;0.77;;;;;;;;;;4993308;28;20386;-59
2023/09/25 09:24:32;;;;;;;1.07;0.93;;;;;;;;;;4990550;28;20045;-59
2023/09/25 09:26:59;;;;;;;0.63;0.47;;;;;;;;;;4993445;28;20030;-59
2023/09/25 09:29:26;;;;;;;0.70;0.70;;;;;;;;;;4993355;28;20034;-59
2023/09/25 09:31:55;;;;;;;1.03;0.60;;;;;;;;;;4993485;28;20444;-59
2023/09/25 09:34:25;;;;;;;2.53;1.13;;;;;;;;;;4988043;28;20084;-59
2023/09/25 09:36:53;;;;;;;6.00;1.10;;;;;;;;;;4970815;28;20031;-59
2023/09/25 09:39:25;;;;;;;1.47;0.87;;;;;;;;;;4968552;28;20482;-60
2023/09/25 09:41:52;;;;;;;0.83;0.50;;;;;;;;;;4968303;28;20102;-59
2023/09/25 09:44:19;;;;;;;1.93;1.03;;;;;;;;;;4973252;28;20015;-59
2023/09/25 09:46:46;;;;;;;3.80;1.37;;;;;;;;;;4973765;28;20042;-59
2023/09/25 09:49:19;;;;;;;1.27;0.93;;;;;;;;;;4973667;28;20019;-59
2023/09/25 09:51:47;;;;;;;1.40;1.03;;;;;;;;;;4973598;28;20061;-59
2023/09/25 09:54:14;;;;;;;0.80;0.57;;;;;;;;;;4973790;28;20097;-60
2023/09/25 09:56:41;;;;;;;1.83;0.80;;;;;;;;;;4968392;28;20026;-59
2023/09/25 09:59:08;;;;;;;1.13;0.80;;;;;;;;;;4968232;28;20053;-60
2023/09/25 10:01:35;;;;;;;0.60;0.60;;;;;;;;;;4968210;28;20023;-59
2023/09/25 10:04:05;;;;;;;0.60;0.40;;;;;;;;;;4971469;28;20480;-59
2023/09/25 10:06:32;;;;;;;1.20;0.87;;;;;;;;;;4991540;28;20038;-59
2023/09/25 10:09:03;;;;;;;1.70;1.17;;;;;;;;;;4992762;28;20389;-59
2023/09/25 10:11:30;;;;;;;0.93;0.70;;;;;;;;;;4992607;28;20062;-59
2023/09/25 10:14:03;;;;;;;0.70;0.60;;;;;;;;;;4992408;28;20544;-59
2023/09/25 10:16:33;;;;;;;1.10;0.70;;;;;;;;;;4992738;28;20078;-59
2023/09/25 10:19:01;;;;;;;1.27;0.90;;;;;;;;;;4980316;28;20027;-59
2023/09/25 10:21:27;;;;;;;1.07;0.70;;;;;;;;;;4968189;28;20425;-59
2023/09/25 10:23:57;;;;;;;0.50;0.50;;;;;;;;;;4968234;28;20466;-59
2023/09/25 10:26:26;;;;;;;0.77;0.63;;;;;;;;;;4975769;28;20069;-59
2023/09/25 10:29:13;;;;;;;1.00;0.73;;;;;;;;;;4990528;28;20033;-59
2023/09/25 10:31:42;;;;;;;1.03;0.87;;;;;;;;;;4992287;28;20034;-59
2023/09/25 10:34:09;;;;;;;1.90;1.07;;;;;;;;;;4992508;28;20053;-59
2023/09/25 10:36:37;;;;;;;11.03;0.80;;;;;;;;;;4992709;28;20022;-59
2023/09/25 10:39:07;;;;;;;1.87;1.00;;;;;;;;;;4985445;28;20042;-59
2023/09/25 10:41:33;;;;;;;0.97;0.77;;;;;;;;;;4971240;28;20018;-59
2023/09/25 10:44:01;;;;;;;1.73;1.13;;;;;;;;;;4981144;28;20042;-59
2023/09/25 10:46:27;;;;;;;1.17;0.80;;;;;;;;;;4968772;28;20038;-59
2023/09/25 10:48:57;;;;;;;1.27;0.70;;;;;;;;;;4967669;28;20082;-59
2023/09/25 10:51:24;;;;;;;1.73;0.97;;;;;;;;;;4980504;28;20132;-60
2023/09/25 10:53:50;;;;;;;1.90;1.07;;;;;;;;;;4992616;28;20030;-59
2023/09/25 10:56:17;;;;;;;2.80;1.10;;;;;;;;;;4992375;28;20180;-59
2023/09/25 10:58:50;;;;;;;0.90;0.63;;;;;;;;;;4992033;28;20033;-59
2023/09/25 11:01:23;;;;;;;1.27;1.03;;;;;;;;;;4992259;28;20500;-59
2023/09/25 11:03:50;;;;;;;1.80;0.80;;;;;;;;;;4988057;28;20485;-59
2023/09/25 11:06:16;;;;;;;1.87;1.27;;;;;;;;;;4971854;28;20125;-59
2023/09/25 11:08:44;;;;;;;0.80;0.60;;;;;;;;;;4967509;28;20035;-59
2023/09/25 11:11:17;;;;;;;1.07;0.70;;;;;;;;;;4967608;28;20030;-59
2023/09/25 11:13:44;;;;;;;0.57;0.50;;;;;;;;;;4970587;28;20106;-59
2023/09/25 11:16:10;;;;;;;1.60;0.87;;;;;;;;;;4972770;28;20081;-59
2023/09/25 11:18:37;;;;;;;4.90;0.97;;;;;;;;;;4972832;28;20031;-60
2023/09/25 11:21:05;;;;;;;1.27;0.97;;;;;;;;;;4991756;28;20540;-59
2023/09/25 11:23:33;;;;;;;1.03;0.70;;;;;;;;;;4991979;28;20110;-59
2023/09/25 11:26:03;;;;;;;0.47;0.40;;;;;;;;;;4988487;28;20097;-59
2023/09/25 11:28:30;;;;;;;1.27;0.73;;;;;;;;;;4986924;28;20054;-59
2023/09/25 11:30:57;;;;;;;0.60;0.50;;;;;;;;;;4989838;28;20476;-59
2023/09/25 11:33:24;;;;;;;1.27;0.80;;;;;;;;;;4973367;28;20031;-59
2023/09/25 11:35:54;;;;;;;1.20;0.90;;;;;;;;;;4973682;28;20456;-60
2023/09/25 11:38:23;;;;;;;2.77;1.10;;;;;;;;;;4976142;28;20061;-59
2023/09/25 11:40:50;;;;;;;1.50;1.00;;;;;;;;;;4975904;28;20089;-59
2023/09/25 11:43:17;;;;;;;2.17;1.23;;;;;;;;;;4975893;28;20478;-59
2023/09/25 11:45:44;;;;;;;0.97;0.70;;;;;;;;;;4991609;28;20030;-59
2023/09/25 11:48:11;;;;;;;0.83;0.50;;;;;;;;;;4992451;28;20501;-58
2023/09/25 11:50:39;;;;;;;3.30;0.87;;;;;;;;;;4989944;28;20101;-59
2023/09/25 11:53:06;;;;;;;1.10;0.67;;;;;;;;;;4989975;28;20486;-59
2023/09/25 11:55:33;;;;;;;1.87;1.03;;;;;;;;;;4990059;28;20384;-59
2023/09/25 11:58:00;;;;;;;2.83;1.23;;;;;;;;;;4989576;28;20057;-59
2023/09/25 12:00:27;;;;;;;8.57;0.60;;;;;;;;;;4975698;28;20054;-59
2023/09/25 12:02:54;;;;;;;0.73;0.70;;;;;;;;;;4975811;28;20039;-59
2023/09/25 12:05:21;;;;;;;1.10;0.80;;;;;;;;;;4975448;28;20030;-59
2023/09/25 12:07:48;;;;;;;2.53;1.03;;;;;;;;;;4975354;28;20390;-59
2023/09/25 12:10:19;;;;;;;2.27;1.07;;;;;;;;;;4973656;28;20062;-59
2023/09/25 12:12:49;;;;;;;1.10;0.80;;;;;;;;;;4977311;28;20027;-58
2023/09/25 12:15:17;;;;;;;1.10;0.80;;;;;;;;;;4989497;28;20084;-59
2023/09/25 12:17:44;;;;;;;0.73;0.67;;;;;;;;;;4989513;28;20022;-58
2023/09/25 12:20:14;;;;;;;3.43;1.63;;;;;;;;;;4990330;28;20030;-60
2023/09/25 12:22:41;;;;;;;1.13;0.80;;;;;;;;;;4994431;28;20053;-58
2023/09/25 12:25:11;;;;;;;2.13;1.47;;;;;;;;;;4994544;28;20033;-59
2023/09/25 12:27:39;;;;;;;17.73;1.30;;;;;;;;;;4980386;28;20070;-59
2023/09/25 12:30:07;;;;;;;1.87;1.23;;;;;;;;;;4975009;28;20034;-58
2023/09/25 12:32:34;;;;;;;1.67;0.93;;;;;;;;;;4973447;28;20026;-58
2023/09/25 12:35:01;;;;;;;3.63;1.30;;;;;;;;;;4969781;28;20022;-59
2023/09/25 12:37:28;;;;;;;1.07;0.67;;;;;;;;;;4970087;28;20477;-59
2023/09/25 12:39:55;;;;;;;1.17;0.80;;;;;;;;;;4969608;28;20165;-58
2023/09/25 12:42:22;;;;;;;2.03;0.83;;;;;;;;;;4987529;28;20359;-59
2023/09/25 12:44:49;;;;;;;0.90;0.60;;;;;;;;;;4994487;28;20088;-59
2023/09/25 12:47:16;;;;;;;4.30;1.80;;;;;;;;;;4994214;28;20033;-59
2023/09/25 12:49:43;;;;;;;0.90;0.70;;;;;;;;;;4994174;28;20485;-59
2023/09/25 12:52:09;;;;;;;1.07;0.80;;;;;;;;;;4994060;28;20023;-58
2023/09/25 12:54:36;;;;;;;1.40;1.10;;;;;;;;;;4992731;28;20026;-59
2023/09/25 12:57:03;;;;;;;0.83;0.63;;;;;;;;;;4969341;28;20034;-58
2023/09/25 12:59:29;;;;;;;6.67;1.37;;;;;;;;;;4969309;28;20023;-59
2023/09/25 13:01:56;;;;;;;12.53;1.50;;;;;;;;;;4969434;28;21289;-58
2023/09/25 13:04:22;;;;;;;3.10;1.77;;;;;;;;;;4969335;28;20035;-59
2023/09/25 13:06:50;;;;;;;1.53;1.03;;;;;;;;;;4973659;28;20430;-59
2023/09/25 13:09:17;;;;;;;0.97;0.67;;;;;;;;;;4978150;28;20385;-59
2023/09/25 13:11:47;;;;;;;4.50;1.27;;;;;;;;;;4993448;28;20104;-58
2023/09/25 13:14:14;;;;;;;1.70;0.77;;;;;;;;;;4974195;28;20379;-59
2023/09/25 13:16:41;;;;;;;7.83;1.03;;;;;;;;;;4973981;28;20034;-59
2023/09/25 13:19:08;;;;;;;8.00;0.93;;;;;;;;;;4969590;28;20062;-58
2023/09/25 13:21:34;;;;;;;2.27;1.03;;;;;;;;;;4968817;28;20027;-59
2023/09/25 13:24:01;;;;;;;1.93;0.97;;;;;;;;;;4968892;28;20342;-59
2023/09/25 13:26:28;;;;;;;3.57;1.27;;;;;;;;;;4986934;28;20545;-60
2023/09/25 13:28:56;;;;;;;1.30;1.07;;;;;;;;;;4974175;28;20023;-59
2023/09/25 13:31:23;;;;;;;1.10;0.57;;;;;;;;;;4973937;28;20026;-59
2023/09/25 13:33:50;;;;;;;0.70;0.47;;;;;;;;;;4973612;28;20023;-59
2023/09/25 13:36:17;;;;;;;1.03;0.87;;;;;;;;;;4973970;28;20031;-59
2023/09/25 13:38:45;;;;;;;0.97;0.73;;;;;;;;;;4973973;28;20034;-59
2023/09/25 13:41:12;;;;;;;1.80;0.70;;;;;;;;;;4985815;28;20422;-59
2023/09/25 13:43:39;;;;;;;0.73;0.73;;;;;;;;;;4988043;28;20054;-59
2023/09/25 13:46:06;;;;;;;1.23;0.83;;;;;;;;;;4988017;28;20556;-59
2023/09/25 13:48:36;;;;;;;1.27;0.73;;;;;;;;;;4987988;28;20031;-59
2023/09/25 13:51:04;;;;;;;2.20;1.10;;;;;;;;;;4990401;28;20022;-59
2023/09/25 13:53:32;;;;;;;2.13;0.80;;;;;;;;;;4975497;28;20088;-59
2023/09/25 13:55:58;;;;;;;1.93;0.90;;;;;;;;;;4973553;28;20019;-59
2023/09/25 13:58:25;;;;;;;1.10;0.97;;;;;;;;;;4973432;28;20054;-59
2023/09/25 14:00:54;;;;;;;2.80;1.63;;;;;;;;;;4974550;28;20426;-59
2023/09/25 14:03:22;;;;;;;2.37;1.47;;;;;;;;;;4970443;28;20027;-59
2023/09/25 14:05:49;;;;;;;1.30;1.00;;;;;;;;;;4968134;28;20104;-60
2023/09/25 14:08:15;;;;;;;3.50;1.77;;;;;;;;;;4983040;28;20026;-60
2023/09/25 14:10:42;;;;;;;1.77;1.30;;;;;;;;;;4987951;28;20370;-60
2023/09/25 14:13:09;;;;;;;4.83;1.47;;;;;;;;;;4989932;28;20377;-60
2023/09/25 14:15:36;;;;;;;1.07;0.83;;;;;;;;;;4992422;28;20022;-59
2023/09/25 14:18:03;;;;;;;5.97;1.70;;;;;;;;;;4992568;28;20026;-59
2023/09/25 14:20:30;;;;;;;1.63;1.20;;;;;;;;;;4989467;28;20474;-59
2023/09/25 14:22:56;;;;;;;1.60;1.10;;;;;;;;;;4992682;28;20042;-59
2023/09/25 14:25:23;;;;;;;2.63;1.03;;;;;;;;;;4989727;28;20363;-59
2023/09/25 14:27:50;;;;;;;1.80;1.17;;;;;;;;;;4987452;28;20050;-59
2023/09/25 14:30:16;;;;;;;1.37;1.07;;;;;;;;;;4985720;28;20062;-59
2023/09/25 14:32:44;;;;;;;2.47;1.43;;;;;;;;;;4987228;28;20509;-60
2023/09/25 14:35:10;;;;;;;2.10;1.43;;;;;;;;;;4974620;28;20030;-59
2023/09/25 14:37:38;;;;;;;1.53;1.03;;;;;;;;;;4973320;28;20108;-59
2023/09/25 14:40:07;;;;;;;2.00;1.40;;;;;;;;;;4973057;28;20039;-60
2023/09/25 14:42:34;;;;;;;1.90;1.23;;;;;;;;;;4973862;28;20042;-60
2023/09/25 14:45:02;;;;;;;1.93;1.37;;;;;;;;;;4973053;28;20418;-60